Terminal Aerodrome Forecast
Issued by NWS Cleveland, OH

Home | Current Version | Previous Version | Graphics & Text | Print | Product List | Glossary On
Versions: 1 2 3 4 5 6 7 8 9 10 11 12 13 14 15 16 17 18 19 20 21 22 23 24 25 26 27 28 29 30 31 32 33 34
000
FTUS41 KCLE 270200 AAC
TAFCLE
TAF AMD
KCLE 270253Z 2703/2806 21007KT P6SM BKN120 OVC250
     FM270800 36006KT P6SM SCT025 BKN250
      TEMPO 2709/2713 5SM BR BKN025
     FM271500 36010KT P6SM SCT035 BKN250
     FM280100 03006KT P6SM SCT250=

USA.gov is the U.S. government's official web portal to all federal, state and local government web resources and services.